Time;durP1;ratioP1;P1;durP2;ratioP2;P2;SDS_P1;SDS_P2;PMS_P1;PMS_P2;Temp;Humidity;BMP_temperature;BMP_pressure;BME280_temperature;BME280_humidity;BME280_pressure;Samples;Min_cycle;Max_cycle;Signal;HPM_P1;HPM_P2
2021/12/17 00:01:06;;;;;;;;;;;2.70;99.90;;;;;;5129382;27;19923;-48
2021/12/17 00:03:37;;;;;;;;;;;2.60;99.90;;;;;;5137209;27;19923;-48
2021/12/17 00:06:18;;;;;;;;;;;2.60;99.90;;;;;;5142986;27;19927;-48
2021/12/17 00:08:47;;;;;;;;;;;2.60;99.90;;;;;;5149202;27;19977;-49
2021/12/17 00:11:14;;;;;;;;;;;2.60;99.90;;;;;;5139683;27;20376;-49
2021/12/17 00:13:45;;;;;;;;;;;2.60;99.90;;;;;;5154502;27;19923;-48
2021/12/17 00:16:17;;;;;;;;;;;2.50;99.90;;;;;;5158148;27;20273;-48
2021/12/17 00:18:57;;;;;;;;;;;2.50;99.90;;;;;;5156343;27;19926;-48
2021/12/17 00:44:10;;;;;;;;;;;2.10;99.90;;;;;;5142998;27;19919;-48
2021/12/17 00:49:24;;;;;;;;;;;2.10;99.90;;;;;;5136786;27;20432;-48
2021/12/17 00:51:59;;;;;;;;;;;2.10;99.90;;;;;;5136851;27;19927;-49
2021/12/17 00:54:32;;;;;;;;;;;2.10;99.90;;;;;;5135127;27;20416;-48
2021/12/17 00:57:01;;;;;;;;;;;2.00;99.90;;;;;;5129952;27;20010;-48
2021/12/17 00:59:28;;;;;;;;;;;1.90;99.90;;;;;;5139565;27;19924;-48
2021/12/17 01:01:57;;;;;;;;;;;2.00;99.90;;;;;;5150215;27;20003;-48
2021/12/17 01:04:24;;;;;;;;;;;2.00;99.90;;;;;;5154747;27;19930;-48
2021/12/17 01:06:51;;;;;;;;;;;1.80;99.90;;;;;;5156269;27;19927;-48
2021/12/17 01:09:19;;;;;;;;;;;1.80;99.90;;;;;;5149583;27;19934;-49
2021/12/17 01:11:46;;;;;;;;;;;1.80;99.90;;;;;;5137032;27;19924;-48
2021/12/17 01:14:13;;;;;;;;;;;2.00;99.90;;;;;;5136229;27;20406;-48
2021/12/17 01:16:40;;;;;;;;;;;1.90;99.90;;;;;;5135636;27;20189;-47
2021/12/17 01:19:16;;;;;;;;;;;1.90;99.90;;;;;;5131932;27;20380;-48
2021/12/17 01:21:57;;;;;;;;;;;1.80;99.90;;;;;;5134331;27;19923;-48
2021/12/17 01:35:23;;;;;;;;;;;1.60;99.90;;;;;;5130673;27;19962;-48
2021/12/17 01:39:00;;;;;;;;;;;1.50;99.90;;;;;;5136118;27;20388;-48
2021/12/17 01:41:13;;;;;;;;;;;1.30;99.90;;;;;;5135112;27;19924;-48
2021/12/17 01:43:43;;;;;;;;;;;1.30;99.90;;;;;;5135087;27;20380;-48
2021/12/17 01:46:11;;;;;;;;;;;1.30;99.90;;;;;;5145998;27;20403;-48
2021/12/17 01:48:55;;;;;;;;;;;1.10;99.90;;;;;;5154491;27;19927;-48
2021/12/17 01:56:59;;;;;;;;;;;1.10;99.90;;;;;;5135975;27;19980;-48
2021/12/17 01:59:32;;;;;;;;;;;1.10;99.90;;;;;;5135087;27;19923;-48
2021/12/17 02:02:03;;;;;;;;;;;0.90;99.90;;;;;;5139826;27;19919;-48
2021/12/17 02:04:30;;;;;;;;;;;0.90;99.90;;;;;;5153219;27;19923;-48
2021/12/17 02:06:59;;;;;;;;;;;0.90;99.90;;;;;;5140102;27;19923;-48
2021/12/17 02:28:53;;;;;;;;;;;0.90;99.90;;;;;;5154126;27;19930;-47
2021/12/17 02:31:26;;;;;;;;;;;0.70;99.90;;;;;;5154432;27;19968;-48
2021/12/17 02:33:54;;;;;;;;;;;0.70;99.90;;;;;;5153567;27;20022;-48
2021/12/17 02:36:25;;;;;;;;;;;0.80;99.90;;;;;;5144699;27;20342;-48
2021/12/17 02:38:59;;;;;;;;;;;0.80;99.90;;;;;;5154612;27;19923;-48
2021/12/17 02:46:57;;;;;;;;;;;0.90;99.90;;;;;;5127970;27;19942;-47
2021/12/17 02:49:24;;;;;;;;;;;0.90;99.90;;;;;;5133997;27;19945;-48
2021/12/17 02:51:53;;;;;;;;;;;0.90;99.90;;;;;;5144055;27;20388;-48
2021/12/17 02:54:20;;;;;;;;;;;1.10;99.90;;;;;;5153714;27;19923;-48
2021/12/17 02:56:47;;;;;;;;;;;0.90;99.90;;;;;;5147357;27;19927;-48
2021/12/17 02:59:14;;;;;;;;;;;0.80;99.90;;;;;;5133381;27;19968;-48
2021/12/17 03:01:42;;;;;;;;;;;0.80;99.90;;;;;;5134011;27;20478;-53
2021/12/17 03:04:09;;;;;;;;;;;0.80;99.90;;;;;;5133846;27;19946;-48
2021/12/17 03:06:36;;;;;;;;;;;0.80;99.90;;;;;;5134963;27;19930;-48
2021/12/17 03:09:05;;;;;;;;;;;0.80;99.90;;;;;;5133628;27;19939;-48
2021/12/17 03:11:32;;;;;;;;;;;0.80;99.90;;;;;;5133755;27;20017;-48
2021/12/17 03:13:58;;;;;;;;;;;0.80;99.90;;;;;;5154481;27;20353;-48
2021/12/17 03:16:32;;;;;;;;;;;0.90;99.90;;;;;;5152178;27;20388;-47
2021/12/17 03:19:05;;;;;;;;;;;0.90;99.90;;;;;;5149273;27;19924;-48
2021/12/17 03:24:18;;;;;;;;;;;0.70;99.90;;;;;;5154035;27;20723;-48
2021/12/17 03:26:45;;;;;;;;;;;0.90;99.90;;;;;;5148146;27;19931;-48
2021/12/17 03:29:13;;;;;;;;;;;0.80;99.90;;;;;;5138718;27;19924;-48
2021/12/17 03:31:40;;;;;;;;;;;0.80;99.90;;;;;;5141607;27;19923;-48
2021/12/17 03:34:21;;;;;;;;;;;0.60;99.90;;;;;;5136386;27;20301;-48
2021/12/17 03:36:51;;;;;;;;;;;0.50;99.90;;;;;;5127730;27;20681;-48
2021/12/17 03:39:19;;;;;;;;;;;0.40;99.90;;;;;;5129940;28;19934;-48
2021/12/17 03:41:51;;;;;;;;;;;0.40;99.90;;;;;;5125957;28;20429;-47
2021/12/17 03:44:18;;;;;;;;;;;0.40;99.90;;;;;;5118808;27;19923;-48
2021/12/17 03:46:46;;;;;;;;;;;0.40;99.90;;;;;;5124697;27;19924;-48
2021/12/17 03:49:14;;;;;;;;;;;0.60;99.90;;;;;;5129197;27;20017;-47
2021/12/17 03:51:47;;;;;;;;;;;0.80;99.90;;;;;;5132492;28;19927;-48
2021/12/17 03:54:14;;;;;;;;;;;0.70;99.90;;;;;;5123487;27;20346;-48
2021/12/17 03:56:43;;;;;;;;;;;0.70;99.90;;;;;;5112551;28;19928;-47
2021/12/17 03:59:10;;;;;;;;;;;0.50;99.90;;;;;;5126139;27;19927;-48
2021/12/17 04:01:37;;;;;;;;;;;0.50;99.90;;;;;;5128948;28;19973;-48
2021/12/17 04:04:04;;;;;;;;;;;0.60;99.90;;;;;;5120291;27;20012;-48
2021/12/17 04:06:31;;;;;;;;;;;0.60;99.90;;;;;;5114628;28;19928;-47
2021/12/17 04:08:58;;;;;;;;;;;0.70;99.90;;;;;;5133121;28;19923;-48
2021/12/17 04:11:25;;;;;;;;;;;0.80;99.90;;;;;;5131970;27;19927;-48
2021/12/17 04:13:55;;;;;;;;;;;0.80;99.90;;;;;;5126694;27;19928;-48
2021/12/17 04:16:26;;;;;;;;;;;0.70;99.90;;;;;;5116314;27;20015;-47
2021/12/17 04:18:53;;;;;;;;;;;0.80;99.90;;;;;;5127828;27;19923;-48
2021/12/17 04:21:20;;;;;;;;;;;0.80;99.90;;;;;;5132989;28;19924;-48
2021/12/17 04:23:47;;;;;;;;;;;0.70;99.90;;;;;;5131617;27;19930;-48
2021/12/17 04:26:15;;;;;;;;;;;0.70;99.90;;;;;;5132975;28;19923;-48
2021/12/17 04:28:44;;;;;;;;;;;0.90;99.90;;;;;;5131156;27;19931;-48
2021/12/17 04:31:13;;;;;;;;;;;1.10;99.90;;;;;;5130932;27;19934;-48
2021/12/17 04:33:41;;;;;;;;;;;0.90;99.90;;;;;;5131500;27;20300;-48
2021/12/17 04:36:10;;;;;;;;;;;0.60;99.90;;;;;;5113330;28;19924;-48
2021/12/17 04:38:37;;;;;;;;;;;0.40;99.90;;;;;;5116356;27;19953;-48
2021/12/17 04:41:36;;;;;;;;;;;0.40;99.90;;;;;;5126395;27;20453;-48
2021/12/17 04:44:03;;;;;;;;;;;0.40;99.90;;;;;;5131228;27;20400;-47
2021/12/17 04:46:36;;;;;;;;;;;0.50;99.90;;;;;;5122809;27;20010;-48
2021/12/17 04:57:30;;;;;;;;;;;0.40;99.90;;;;;;5118993;27;19926;-48
2021/12/17 05:00:00;;;;;;;;;;;0.30;99.90;;;;;;5116044;28;20388;-47
2021/12/17 05:02:29;;;;;;;;;;;0.40;99.90;;;;;;5116123;28;19924;-48
2021/12/17 05:04:56;;;;;;;;;;;0.30;99.90;;;;;;5130384;27;20358;-48
2021/12/17 05:07:25;;;;;;;;;;;0.20;99.90;;;;;;5136287;27;19923;-48
2021/12/17 05:10:00;;;;;;;;;;;0.20;99.90;;;;;;5135986;27;19928;-48
2021/12/17 05:18:17;;;;;;;;;;;0.10;99.90;;;;;;5118623;27;19926;-48
2021/12/17 05:20:45;;;;;;;;;;;0.10;99.90;;;;;;5115694;28;19931;-48
2021/12/17 05:23:12;;;;;;;;;;;0.20;99.90;;;;;;5123818;27;19931;-48
2021/12/17 05:25:39;;;;;;;;;;;0.10;99.90;;;;;;5143588;27;19927;-48
2021/12/17 05:28:06;;;;;;;;;;;0.20;99.90;;;;;;5135956;27;19985;-48
2021/12/17 05:30:34;;;;;;;;;;;0.20;99.90;;;;;;5139827;27;19970;-47
2021/12/17 05:33:02;;;;;;;;;;;0.30;99.90;;;;;;5135341;27;20297;-47
2021/12/17 05:35:29;;;;;;;;;;;0.30;99.90;;;;;;5135816;27;20010;-48
2021/12/17 05:37:55;;;;;;;;;;;0.30;99.90;;;;;;5155618;27;19923;-47
2021/12/17 05:40:23;;;;;;;;;;;0.30;99.90;;;;;;5144558;27;20361;-48
2021/12/17 05:42:54;;;;;;;;;;;0.30;99.90;;;;;;5136733;27;19924;-48
2021/12/17 05:45:32;;;;;;;;;;;0.30;99.90;;;;;;5137129;27;19949;-48
2021/12/17 05:47:59;;;;;;;;;;;0.30;99.90;;;;;;5141795;27;19984;-48
2021/12/17 05:50:27;;;;;;;;;;;0.30;99.90;;;;;;5140262;27;19923;-48
2021/12/17 05:52:54;;;;;;;;;;;0.40;99.90;;;;;;5134974;27;19923;-48
2021/12/17 05:55:21;;;;;;;;;;;0.40;99.90;;;;;;5135707;27;19928;-48
2021/12/17 05:57:47;;;;;;;;;;;0.20;99.90;;;;;;5139386;22;19977;-46
2021/12/17 06:00:15;;;;;;;;;;;0.20;99.90;;;;;;5114030;28;19927;-46
2021/12/17 06:02:42;;;;;;;;;;;0.20;99.90;;;;;;5114111;28;20060;-47
2021/12/17 06:05:08;;;;;;;;;;;0.10;99.90;;;;;;5114197;28;19924;-46
2021/12/17 06:07:36;;;;;;;;;;;0.10;99.90;;;;;;5113916;28;19924;-47
2021/12/17 06:10:04;;;;;;;;;;;0.10;99.90;;;;;;5113896;28;19924;-47
2021/12/17 06:12:30;;;;;;;;;;;0.10;99.90;;;;;;5113041;28;19923;-45
2021/12/17 06:14:57;;;;;;;;;;;0.00;99.90;;;;;;5113724;28;19935;-46
2021/12/17 06:17:24;;;;;;;;;;;-0.10;99.90;;;;;;5113901;28;19976;-46
2021/12/17 06:19:51;;;;;;;;;;;-0.10;99.90;;;;;;5113631;28;19923;-46
2021/12/17 06:22:18;;;;;;;;;;;-0.20;99.90;;;;;;5112726;28;19940;-46
2021/12/17 06:24:46;;;;;;;;;;;-0.20;99.90;;;;;;5112990;28;20397;-46
2021/12/17 06:27:13;;;;;;;;;;;-0.10;99.90;;;;;;5113559;28;19969;-46
2021/12/17 06:29:40;;;;;;;;;;;0.00;99.90;;;;;;5113488;28;19936;-47
2021/12/17 06:32:08;;;;;;;;;;;-0.10;99.90;;;;;;5110570;28;19969;-45
2021/12/17 06:34:35;;;;;;;;;;;-0.10;99.90;;;;;;5099115;28;19977;-46
2021/12/17 06:37:02;;;;;;;;;;;-0.10;99.90;;;;;;5094748;28;19924;-47
2021/12/17 06:39:29;;;;;;;;;;;-0.10;99.90;;;;;;5096623;28;19924;-46
2021/12/17 06:41:57;;;;;;;;;;;-0.10;99.90;;;;;;5097219;28;20447;-46
2021/12/17 06:44:26;;;;;;;;;;;0.00;99.90;;;;;;5094261;28;19977;-46
2021/12/17 06:46:58;;;;;;;;;;;0.00;99.90;;;;;;5094240;28;19963;-46
2021/12/17 06:49:31;;;;;;;;;;;0.00;99.90;;;;;;5096424;28;20361;-46
2021/12/17 06:54:56;;;;;;;;;;;-0.30;99.90;;;;;;5112524;28;19976;-45
2021/12/17 07:00:33;;;;;;;;;;;-0.50;99.90;;;;;;5105546;28;19935;-45
2021/12/17 07:06:02;;;;;;;;;;;-0.20;99.90;;;;;;5092663;28;19993;-46
2021/12/17 07:11:35;;;;;;;;;;;-0.20;99.90;;;;;;5092271;28;20460;-47
2021/12/17 07:22:24;;;;;;;;;;;-0.40;99.90;;;;;;5109758;28;19927;-46
2021/12/17 07:28:04;;;;;;;;;;;-0.30;99.90;;;;;;5111102;28;19923;-45
2021/12/17 07:33:15;;;;;;;;;;;-0.10;99.90;;;;;;5100315;28;19935;-46
2021/12/17 07:35:52;;;;;;;;;;;-0.20;99.90;;;;;;5092309;28;19931;-46
2021/12/17 07:38:39;;;;;;;;;;;0.00;99.90;;;;;;5107271;28;19981;-46
2021/12/17 07:41:06;;;;;;;;;;;-0.10;99.90;;;;;;5110460;28;19973;-47
2021/12/17 07:43:37;;;;;;;;;;;-0.10;99.90;;;;;;5111173;28;19930;-46
2021/12/17 07:46:07;;;;;;;;;;;-0.20;99.90;;;;;;5112526;28;20385;-47
2021/12/17 07:48:34;;;;;;;;;;;-0.10;99.90;;;;;;5112319;28;20384;-46
2021/12/17 07:51:03;;;;;;;;;;;0.00;99.90;;;;;;5100616;28;20377;-46
2021/12/17 07:53:30;;;;;;;;;;;-0.10;99.90;;;;;;5112481;28;19963;-46
2021/12/17 07:55:57;;;;;;;;;;;-0.10;99.90;;;;;;5112191;28;19928;-46
2021/12/17 07:58:24;;;;;;;;;;;-0.10;99.90;;;;;;5111523;28;20007;-47
2021/12/17 08:00:54;;;;;;;;;;;0.00;99.90;;;;;;5112342;28;19928;-46
2021/12/17 08:03:22;;;;;;;;;;;0.10;99.90;;;;;;5111945;28;19927;-47
2021/12/17 08:05:51;;;;;;;;;;;0.10;99.90;;;;;;5112109;28;20462;-46
2021/12/17 08:08:18;;;;;;;;;;;0.40;99.90;;;;;;5112284;28;19931;-46
2021/12/17 08:10:47;;;;;;;;;;;0.40;99.90;;;;;;5113855;28;19927;-47
2021/12/17 08:13:19;;;;;;;;;;;0.60;99.90;;;;;;5115902;28;20341;-46
2021/12/17 08:15:58;;;;;;;;;;;0.70;99.90;;;;;;5115923;28;19978;-46
2021/12/17 08:18:43;;;;;;;;;;;0.90;99.90;;;;;;5115908;28;19927;-47
2021/12/17 08:24:43;;;;;;;;;;;1.40;99.90;;;;;;5116006;28;19996;-46
2021/12/17 08:27:22;;;;;;;;;;;1.80;99.90;;;;;;5115809;28;20470;-47
2021/12/17 08:29:56;;;;;;;;;;;2.00;99.90;;;;;;5115695;28;20329;-46
2021/12/17 08:32:23;;;;;;;;;;;2.20;99.90;;;;;;5115092;28;19947;-46
2021/12/17 08:34:51;;;;;;;;;;;2.30;99.90;;;;;;5115428;28;19928;-47
2021/12/17 08:37:18;;;;;;;;;;;2.30;99.90;;;;;;5115056;28;20388;-47
2021/12/17 08:39:44;;;;;;;;;;;2.40;99.90;;;;;;5108396;28;19925;-46
2021/12/17 08:42:11;;;;;;;;;;;2.60;99.90;;;;;;5094916;28;19976;-47
2021/12/17 08:44:38;;;;;;;;;;;2.60;99.90;;;;;;5107808;28;19924;-46
2021/12/17 08:47:05;;;;;;;;;;;2.90;99.90;;;;;;5095022;28;19928;-47
2021/12/17 08:49:32;;;;;;;;;;;3.00;99.90;;;;;;5095202;28;20019;-47
2021/12/17 08:52:00;;;;;;;;;;;3.30;99.90;;;;;;5094703;28;19951;-47
2021/12/17 08:54:27;;;;;;;;;;;3.30;99.90;;;;;;5095028;28;20401;-47
2021/12/17 08:56:54;;;;;;;;;;;3.30;99.90;;;;;;5094901;28;19928;-47
2021/12/17 08:59:21;;;;;;;;;;;3.50;99.90;;;;;;5095130;28;19928;-47
2021/12/17 09:01:48;;;;;;;;;;;3.70;99.90;;;;;;5094836;28;19960;-48
2021/12/17 09:04:15;;;;;;;;;;;3.80;99.90;;;;;;5095077;28;19927;-46
2021/12/17 09:06:41;;;;;;;;;;;3.80;99.90;;;;;;5094643;28;19924;-48
2021/12/17 09:09:10;;;;;;;;;;;3.90;99.90;;;;;;5094705;28;20328;-47
2021/12/17 09:11:36;;;;;;;;;;;3.80;99.90;;;;;;5094562;28;19928;-47
2021/12/17 09:14:04;;;;;;;;;;;3.90;99.90;;;;;;5102441;28;19992;-47
2021/12/17 09:16:31;;;;;;;;;;;4.00;99.90;;;;;;5115075;28;19976;-46
2021/12/17 09:18:58;;;;;;;;;;;4.40;99.90;;;;;;5114916;28;19969;-48
2021/12/17 09:21:25;;;;;;;;;;;4.60;99.90;;;;;;5114159;28;19981;-47
2021/12/17 09:23:52;;;;;;;;;;;4.60;99.90;;;;;;5115098;28;19924;-48
2021/12/17 09:26:21;;;;;;;;;;;4.70;99.90;;;;;;5115115;28;19928;-47
2021/12/17 09:28:47;;;;;;;;;;;4.70;99.90;;;;;;5115041;28;19924;-47
2021/12/17 09:31:14;;;;;;;;;;;4.70;99.90;;;;;;5114643;28;19924;-48
2021/12/17 09:33:41;;;;;;;;;;;4.80;99.90;;;;;;5114642;28;19977;-46
2021/12/17 09:36:08;;;;;;;;;;;4.70;99.90;;;;;;5114600;28;19924;-48
2021/12/17 09:38:35;;;;;;;;;;;4.60;99.90;;;;;;5114812;28;19969;-47
2021/12/17 09:41:02;;;;;;;;;;;4.50;99.90;;;;;;5114230;28;19969;-46
2021/12/17 09:43:32;;;;;;;;;;;4.70;99.90;;;;;;5114418;28;20000;-47
2021/12/17 09:45:59;;;;;;;;;;;4.70;99.90;;;;;;5114392;28;19927;-47
2021/12/17 09:48:26;;;;;;;;;;;4.50;99.90;;;;;;5114034;28;20396;-47
2021/12/17 09:50:56;;;;;;;;;;;4.70;99.90;;;;;;5102642;28;19941;-49
2021/12/17 09:53:23;;;;;;;;;;;4.80;99.90;;;;;;5113566;28;20450;-47
2021/12/17 09:55:51;;;;;;;;;;;4.90;99.90;;;;;;5114116;28;20446;-47
2021/12/17 09:58:18;;;;;;;;;;;4.90;99.90;;;;;;5106721;28;19928;-47
2021/12/17 10:00:46;;;;;;;;;;;4.80;99.90;;;;;;5106084;28;19939;-48
2021/12/17 10:03:13;;;;;;;;;;;4.50;99.90;;;;;;5098400;28;19977;-48
2021/12/17 10:05:40;;;;;;;;;;;4.60;99.90;;;;;;5111788;28;19931;-48
2021/12/17 10:08:11;;;;;;;;;;;4.50;99.90;;;;;;5113793;28;19928;-48
2021/12/17 10:10:38;;;;;;;;;;;4.80;99.90;;;;;;5113888;28;19969;-48
2021/12/17 10:13:10;;;;;;;;;;;5.10;99.90;;;;;;5111779;28;19928;-49
2021/12/17 10:15:37;;;;;;;;;;;5.40;99.90;;;;;;5113472;28;19971;-47
2021/12/17 10:18:05;;;;;;;;;;;5.90;99.90;;;;;;5113367;28;19992;-48
2021/12/17 10:20:33;;;;;;;;;;;6.20;99.90;;;;;;5113672;28;19984;-48
2021/12/17 10:23:01;;;;;;;;;;;6.50;99.90;;;;;;5102749;28;19928;-48
2021/12/17 10:25:28;;;;;;;;;;;7.00;99.90;;;;;;5093427;28;19947;-49
2021/12/17 10:27:59;;;;;;;;;;;6.70;99.90;;;;;;5109276;28;20004;-47
2021/12/17 10:30:27;;;;;;;;;;;6.70;99.90;;;;;;5113601;28;20055;-47
2021/12/17 10:32:55;;;;;;;;;;;6.50;99.90;;;;;;5109802;28;19923;-48
2021/12/17 10:35:24;;;;;;;;;;;6.30;99.90;;;;;;5092276;28;19949;-48
2021/12/17 10:37:55;;;;;;;;;;;6.50;99.90;;;;;;5092807;28;19924;-47
2021/12/17 10:40:24;;;;;;;;;;;6.50;99.90;;;;;;5093606;28;19942;-48
2021/12/17 10:43:04;;;;;;;;;;;6.00;99.90;;;;;;5103441;28;19925;-48
2021/12/17 10:45:33;;;;;;;;;;;5.70;99.90;;;;;;5092990;28;19928;-48
2021/12/17 10:48:27;;;;;;;;;;;5.70;99.90;;;;;;5092659;28;19974;-48
2021/12/17 10:51:02;;;;;;;;;;;5.70;99.90;;;;;;5099004;28;19970;-48
2021/12/17 10:53:28;;;;;;;;;;;5.90;99.90;;;;;;5113339;28;19924;-48
2021/12/17 10:55:56;;;;;;;;;;;5.70;99.90;;;;;;5112684;28;19928;-48
2021/12/17 10:58:23;;;;;;;;;;;5.70;99.90;;;;;;5113328;28;19923;-46
2021/12/17 11:00:54;;;;;;;;;;;5.90;99.90;;;;;;5108243;28;19928;-48
2021/12/17 11:03:21;;;;;;;;;;;5.60;99.90;;;;;;5092794;28;19924;-46
2021/12/17 11:05:48;;;;;;;;;;;5.50;99.90;;;;;;5092829;28;19924;-47
2021/12/17 11:08:28;;;;;;;;;;;5.50;99.90;;;;;;5112716;28;19924;-46
2021/12/17 11:11:00;;;;;;;;;;;5.60;99.90;;;;;;5111722;28;19924;-49
2021/12/17 11:13:27;;;;;;;;;;;5.60;99.90;;;;;;5112358;28;19924;-48
2021/12/17 11:15:56;;;;;;;;;;;5.70;99.90;;;;;;5112632;28;20450;-47
2021/12/17 11:18:25;;;;;;;;;;;5.80;99.90;;;;;;5112667;28;19924;-48
2021/12/17 11:20:56;;;;;;;;;;;5.50;99.90;;;;;;5106905;28;19924;-47
2021/12/17 11:23:24;;;;;;;;;;;5.70;99.90;;;;;;5093808;28;20358;-49
2021/12/17 11:25:55;;;;;;;;;;;5.70;99.90;;;;;;5112382;28;19924;-47
2021/12/17 11:28:23;;;;;;;;;;;5.50;99.90;;;;;;5112377;28;20425;-47
2021/12/17 11:30:51;;;;;;;;;;;5.50;99.90;;;;;;5107064;28;20014;-47
2021/12/17 11:33:18;;;;;;;;;;;5.50;99.90;;;;;;5091925;28;19924;-47
2021/12/17 11:35:46;;;;;;;;;;;5.30;99.90;;;;;;5091881;28;19928;-47
2021/12/17 11:38:14;;;;;;;;;;;5.40;99.90;;;;;;5098204;28;20469;-48
2021/12/17 11:40:45;;;;;;;;;;;5.50;99.90;;;;;;5111480;28;19928;-48
2021/12/17 11:43:37;;;;;;;;;;;5.60;99.90;;;;;;5112029;28;20381;-47
2021/12/17 11:46:04;;;;;;;;;;;5.60;99.90;;;;;;5111711;28;19924;-47
2021/12/17 11:48:33;;;;;;;;;;;5.80;99.90;;;;;;5112156;28;19969;-47
2021/12/17 11:51:05;;;;;;;;;;;5.60;99.90;;;;;;5106203;28;19969;-48
2021/12/17 11:53:33;;;;;;;;;;;5.60;99.90;;;;;;5104005;28;19927;-47
2021/12/17 11:56:02;;;;;;;;;;;5.80;99.90;;;;;;5104263;28;19924;-48
2021/12/17 11:58:43;;;;;;;;;;;5.80;99.90;;;;;;5115087;22;19932;-48
2021/12/17 12:01:10;;;;;;;;;;;5.30;99.90;;;;;;5088402;28;19928;-49
2021/12/17 12:03:37;;;;;;;;;;;5.40;99.90;;;;;;5091714;28;19977;-48
2021/12/17 12:06:04;;;;;;;;;;;5.20;99.90;;;;;;5091328;28;19970;-49
2021/12/17 12:08:34;;;;;;;;;;;5.10;99.90;;;;;;5092073;28;20382;-49
2021/12/17 12:11:07;;;;;;;;;;;5.20;99.90;;;;;;5091664;28;19963;-49
2021/12/17 12:13:35;;;;;;;;;;;5.50;99.90;;;;;;5091377;28;19939;-48
2021/12/17 12:16:03;;;;;;;;;;;5.60;99.90;;;;;;5091798;28;19977;-48
2021/12/17 12:18:39;;;;;;;;;;;5.40;99.90;;;;;;5091642;28;20015;-48
2021/12/17 12:21:06;;;;;;;;;;;5.60;99.90;;;;;;5091238;28;19977;-49
2021/12/17 12:23:37;;;;;;;;;;;5.70;99.90;;;;;;5091302;28;19931;-49
2021/12/17 12:26:13;;;;;;;;;;;5.80;99.90;;;;;;5091701;28;20370;-49
2021/12/17 12:28:48;;;;;;;;;;;5.70;99.90;;;;;;5091693;28;19924;-49
2021/12/17 12:31:15;;;;;;;;;;;5.70;99.90;;;;;;5091241;28;19924;-49
2021/12/17 12:33:57;;;;;;;;;;;5.80;99.90;;;;;;5091361;28;19946;-49
2021/12/17 12:36:38;;;;;;;;;;;5.90;99.90;;;;;;5090918;28;20374;-49
2021/12/17 12:39:13;;;;;;;;;;;5.70;99.90;;;;;;5091341;28;19969;-49
2021/12/17 12:41:46;;;;;;;;;;;5.80;99.90;;;;;;5091360;28;19928;-49
2021/12/17 12:44:13;;;;;;;;;;;5.70;99.90;;;;;;5091105;28;19928;-49
2021/12/17 12:46:50;;;;;;;;;;;5.30;99.90;;;;;;5091255;28;19928;-48
2021/12/17 12:49:35;;;;;;;;;;;5.00;99.90;;;;;;5091279;28;19978;-48
2021/12/17 12:52:14;;;;;;;;;;;4.90;99.90;;;;;;5091412;28;20399;-48
2021/12/17 12:54:41;;;;;;;;;;;4.60;99.90;;;;;;5091329;28;19993;-48
2021/12/17 12:57:09;;;;;;;;;;;4.60;99.90;;;;;;5092559;28;20347;-48
2021/12/17 12:59:36;;;;;;;;;;;4.50;99.90;;;;;;5095592;28;19977;-47
2021/12/17 13:02:03;;;;;;;;;;;4.40;99.90;;;;;;5094885;28;19981;-48
2021/12/17 13:04:31;;;;;;;;;;;4.30;99.90;;;;;;5094675;28;19924;-48
2021/12/17 13:06:58;;;;;;;;;;;4.40;99.90;;;;;;5094424;28;19924;-48
2021/12/17 13:09:28;;;;;;;;;;;4.60;99.90;;;;;;5094824;28;20435;-47
2021/12/17 13:11:55;;;;;;;;;;;4.60;99.90;;;;;;5094099;28;19972;-48
2021/12/17 13:14:25;;;;;;;;;;;4.70;99.90;;;;;;5093688;28;19928;-47
2021/12/17 13:17:16;;;;;;;;;;;4.70;99.90;;;;;;5092816;28;20006;-48
2021/12/17 13:22:53;;;;;;;;;;;4.50;99.90;;;;;;5074414;28;19932;-48
2021/12/17 13:25:26;;;;;;;;;;;4.40;99.90;;;;;;5077842;28;19931;-48
2021/12/17 13:27:53;;;;;;;;;;;4.60;99.90;;;;;;5074790;28;19925;-47
2021/12/17 13:30:25;;;;;;;;;;;4.40;99.90;;;;;;5074364;28;19979;-47
2021/12/17 13:32:52;;;;;;;;;;;4.30;99.90;;;;;;5074153;28;20027;-47
2021/12/17 13:35:20;;;;;;;;;;;4.20;99.90;;;;;;5087300;28;20011;-47
2021/12/17 13:37:47;;;;;;;;;;;4.10;99.90;;;;;;5082337;28;19929;-47
2021/12/17 13:40:14;;;;;;;;;;;4.00;99.90;;;;;;5074614;28;20420;-47
2021/12/17 13:42:42;;;;;;;;;;;4.10;99.90;;;;;;5073933;28;19977;-47
2021/12/17 13:45:10;;;;;;;;;;;4.00;99.90;;;;;;5085890;28;19985;-49
2021/12/17 13:47:40;;;;;;;;;;;4.10;99.90;;;;;;5094157;28;19924;-48
2021/12/17 13:50:08;;;;;;;;;;;4.10;99.90;;;;;;5094061;28;20019;-48
2021/12/17 13:52:36;;;;;;;;;;;4.20;99.90;;;;;;5093736;28;19924;-48
2021/12/17 13:55:05;;;;;;;;;;;4.20;99.90;;;;;;5093696;28;19928;-48
2021/12/17 13:57:32;;;;;;;;;;;4.20;99.90;;;;;;5093652;28;20305;-48
2021/12/17 14:00:06;;;;;;;;;;;4.30;99.90;;;;;;5094205;28;19924;-48
2021/12/17 14:02:34;;;;;;;;;;;4.30;99.90;;;;;;5093774;28;19997;-47
2021/12/17 14:05:03;;;;;;;;;;;4.40;99.90;;;;;;5093582;28;19931;-48
2021/12/17 14:07:31;;;;;;;;;;;4.50;99.90;;;;;;5093469;28;19924;-48
2021/12/17 14:09:59;;;;;;;;;;;4.60;99.90;;;;;;5093507;28;19931;-48
2021/12/17 14:12:29;;;;;;;;;;;4.60;99.90;;;;;;5093201;28;19970;-48
2021/12/17 14:14:57;;;;;;;;;;;4.80;99.90;;;;;;5083695;28;20545;-49
2021/12/17 14:17:23;;;;;;;;;;;4.90;99.90;;;;;;5093613;28;19928;-48
2021/12/17 14:19:50;;;;;;;;;;;4.50;99.90;;;;;;5093662;28;20607;-48
2021/12/17 14:22:24;;;;;;;;;;;4.30;99.90;;;;;;5093168;28;19924;-47
2021/12/17 14:24:51;;;;;;;;;;;4.20;99.90;;;;;;5093760;28;19931;-47
2021/12/17 14:27:19;;;;;;;;;;;4.00;99.90;;;;;;5093511;28;19923;-47
2021/12/17 14:29:45;;;;;;;;;;;3.90;99.90;;;;;;5091821;28;20004;-47
2021/12/17 14:32:16;;;;;;;;;;;3.80;99.90;;;;;;5080662;28;19924;-47
2021/12/17 14:34:43;;;;;;;;;;;3.80;99.90;;;;;;5093408;28;19924;-47
2021/12/17 14:37:10;;;;;;;;;;;3.90;99.90;;;;;;5093309;28;20339;-47
2021/12/17 14:39:42;;;;;;;;;;;3.70;99.90;;;;;;5093425;28;19930;-47
2021/12/17 14:42:10;;;;;;;;;;;3.60;99.90;;;;;;5093316;28;20289;-48
2021/12/17 14:44:47;;;;;;;;;;;3.50;99.90;;;;;;5093342;28;19974;-47
2021/12/17 14:47:19;;;;;;;;;;;3.40;99.90;;;;;;5092947;28;19931;-47
2021/12/17 15:01:12;;;;;;;;;;;3.30;99.90;;;;;;5053667;28;19935;-47
2021/12/17 15:03:42;;;;;;;;;;;3.30;99.90;;;;;;5092852;28;20416;-47
2021/12/17 15:06:09;;;;;;;;;;;3.50;99.90;;;;;;5092544;28;20035;-47
2021/12/17 15:08:36;;;;;;;;;;;3.50;99.90;;;;;;5092878;28;19924;-47
2021/12/17 15:11:10;;;;;;;;;;;3.50;99.90;;;;;;5092107;28;19928;-47
2021/12/17 15:13:37;;;;;;;;;;;3.50;99.90;;;;;;5092688;28;19970;-47
2021/12/17 15:16:07;;;;;;;;;;;3.50;99.90;;;;;;5081013;28;20435;-47
2021/12/17 15:18:34;;;;;;;;;;;3.50;99.90;;;;;;5077608;28;19977;-47
2021/12/17 15:21:00;;;;;;;;;;;3.60;99.90;;;;;;5091633;28;19924;-47
2021/12/17 15:23:28;;;;;;;;;;;3.50;99.90;;;;;;5092715;28;19924;-47
2021/12/17 15:25:59;;;;;;;;;;;3.50;99.90;;;;;;5085662;28;19958;-47
2021/12/17 15:28:27;;;;;;;;;;;3.80;99.90;;;;;;5072501;28;20081;-47
2021/12/17 15:30:56;;;;;;;;;;;3.90;99.90;;;;;;5089449;28;19928;-47
2021/12/17 15:33:23;;;;;;;;;;;3.80;99.90;;;;;;5092407;28;19924;-48
2021/12/17 15:35:50;;;;;;;;;;;3.70;99.90;;;;;;5092365;28;19928;-47
2021/12/17 15:38:17;;;;;;;;;;;3.70;99.90;;;;;;5077439;28;19931;-48
2021/12/17 15:40:45;;;;;;;;;;;3.70;99.90;;;;;;5072103;28;19978;-47
2021/12/17 15:43:15;;;;;;;;;;;3.80;99.90;;;;;;5072078;28;19978;-47
2021/12/17 15:45:45;;;;;;;;;;;3.90;99.90;;;;;;5084321;28;19927;-47
2021/12/17 15:48:13;;;;;;;;;;;4.10;99.90;;;;;;5092446;28;19924;-47
2021/12/17 15:50:40;;;;;;;;;;;4.00;99.90;;;;;;5075481;28;20417;-47
2021/12/17 15:53:07;;;;;;;;;;;4.00;99.90;;;;;;5071723;28;19924;-48
2021/12/17 15:55:33;;;;;;;;;;;4.00;99.90;;;;;;5082823;28;19924;-48
2021/12/17 15:58:01;;;;;;;;;;;3.90;99.90;;;;;;5092018;28;19984;-47
2021/12/17 16:00:31;;;;;;;;;;;4.00;99.90;;;;;;5092055;28;19931;-48
2021/12/17 16:03:00;;;;;;;;;;;4.10;99.90;;;;;;5092095;28;20027;-47
2021/12/17 16:05:27;;;;;;;;;;;4.10;99.90;;;;;;5091708;28;20007;-47
2021/12/17 16:07:56;;;;;;;;;;;4.00;99.90;;;;;;5092037;28;20286;-48
2021/12/17 16:18:45;;;;;;;;;;;4.00;99.90;;;;;;5092689;28;19927;-48
2021/12/17 16:21:11;;;;;;;;;;;4.10;99.90;;;;;;5092130;28;19924;-49
2021/12/17 16:23:39;;;;;;;;;;;4.20;99.90;;;;;;5092020;28;19920;-47
2021/12/17 16:26:06;;;;;;;;;;;4.20;99.90;;;;;;5084099;28;19933;-47
2021/12/17 16:28:34;;;;;;;;;;;3.90;99.90;;;;;;5071572;28;19951;-46
2021/12/17 16:31:05;;;;;;;;;;;4.00;99.90;;;;;;5071710;28;19925;-48
2021/12/17 16:33:33;;;;;;;;;;;4.00;99.90;;;;;;5074943;28;19978;-47
2021/12/17 16:36:02;;;;;;;;;;;4.00;99.90;;;;;;5089262;28;19924;-47
2021/12/17 16:38:29;;;;;;;;;;;4.10;99.90;;;;;;5095648;28;19928;-47
2021/12/17 16:40:55;;;;;;;;;;;4.30;99.90;;;;;;5095335;28;19981;-47
2021/12/17 16:43:23;;;;;;;;;;;4.20;99.90;;;;;;5095439;28;20389;-47
2021/12/17 16:46:04;;;;;;;;;;;4.10;99.90;;;;;;5095395;28;19990;-47
2021/12/17 16:48:31;;;;;;;;;;;4.10;99.90;;;;;;5095520;28;19931;-47
2021/12/17 16:50:59;;;;;;;;;;;4.00;99.90;;;;;;5094870;28;20025;-47
2021/12/17 16:53:26;;;;;;;;;;;4.00;99.90;;;;;;5095168;28;19928;-48
2021/12/17 16:55:52;;;;;;;;;;;4.10;99.90;;;;;;5094693;28;19928;-49
2021/12/17 16:58:19;;;;;;;;;;;4.10;99.90;;;;;;5095084;28;19977;-47